createdAt,value
2023-07-01T00:02:17.768Z,1.83
2023-07-01T00:04:45.232Z,1.90
2023-07-01T00:07:12.702Z,2.10
2023-07-01T00:09:39.980Z,1.77
2023-07-01T00:12:07.612Z,2.05
2023-07-01T00:14:34.927Z,1.95
2023-07-01T00:17:03.622Z,1.48
2023-07-01T00:19:31.320Z,1.98
2023-07-01T00:21:58.673Z,1.92
2023-07-01T00:24:25.962Z,1.52
2023-07-01T00:26:53.282Z,2.25
2023-07-01T00:29:20.541Z,1.20
2023-07-01T00:31:48.806Z,2.47
2023-07-01T00:34:16.296Z,2.70
2023-07-01T00:36:43.580Z,2.28
2023-07-01T00:39:10.918Z,1.45
2023-07-01T00:41:38.355Z,1.70
2023-07-01T00:44:05.908Z,1.45
2023-07-01T00:46:34.844Z,1.55
2023-07-01T00:49:02.732Z,2.33
2023-07-01T00:51:30.159Z,2.42
2023-07-01T00:53:57.631Z,2.25
2023-07-01T00:56:25.204Z,1.33
2023-07-01T00:58:54.585Z,2.13
2023-07-01T01:01:29.997Z,1.20
2023-07-01T01:04:06.364Z,1.70
2023-07-01T01:06:44.808Z,2.15
2023-07-01T01:09:30.190Z,2.30
2023-07-01T01:11:59.684Z,2.53
2023-07-01T01:14:29.218Z,2.53
2023-07-01T01:16:58.115Z,3.60
2023-07-01T01:19:41.349Z,1.77
2023-07-01T01:22:23.462Z,3.78
2023-07-01T01:24:58.838Z,2.55
2023-07-01T01:27:40.034Z,2.08
2023-07-01T01:30:08.821Z,2.10
2023-07-01T01:32:36.254Z,1.75
2023-07-01T01:35:07.502Z,2.50
2023-07-01T01:37:55.996Z,1.70
2023-07-01T01:40:48.736Z,1.88
2023-07-01T01:43:35.652Z,2.38
2023-07-01T01:46:03.861Z,1.33
2023-07-01T01:48:32.020Z,2.03
2023-07-01T01:51:01.715Z,4.07
2023-07-01T01:53:30.379Z,1.20
2023-07-01T01:55:58.898Z,1.70
2023-07-01T01:58:27.501Z,2.25
2023-07-01T02:00:54.920Z,1.42
2023-07-01T02:03:22.490Z,1.95
2023-07-01T02:05:50.169Z,2.25
2023-07-01T02:08:17.538Z,1.67
2023-07-01T02:10:45.174Z,1.70
2023-07-01T02:13:12.763Z,2.40
2023-07-01T02:15:40.146Z,1.70
2023-07-01T02:18:07.551Z,1.55
2023-07-01T02:20:34.923Z,1.20
2023-07-01T02:23:02.269Z,2.35
2023-07-01T02:25:29.558Z,3.70
2023-07-01T02:27:56.868Z,1.65
2023-07-01T02:30:24.204Z,1.83
2023-07-01T02:32:51.630Z,1.83
2023-07-01T02:35:19.087Z,2.85
2023-07-01T02:37:46.503Z,2.78
2023-07-01T02:40:13.929Z,2.90
2023-07-01T02:42:41.352Z,1.67
2023-07-01T02:45:09.144Z,2.10
2023-07-01T02:47:36.544Z,3.03
2023-07-01T02:50:05.564Z,1.70
2023-07-01T02:52:33.062Z,1.98
2023-07-01T02:55:00.485Z,1.98
2023-07-01T02:57:27.792Z,2.13
2023-07-01T02:59:56.325Z,2.28
2023-07-01T03:02:23.650Z,2.30
2023-07-01T03:04:51.134Z,1.95
2023-07-01T03:07:18.614Z,1.30
2023-07-01T03:09:45.956Z,2.13
2023-07-01T03:12:13.320Z,1.10
2023-07-01T03:14:40.650Z,1.15
2023-07-01T03:17:08.364Z,1.80
2023-07-01T03:19:35.857Z,1.65
2023-07-01T03:22:03.193Z,2.35
2023-07-01T03:24:35.114Z,1.70
2023-07-01T03:27:04.472Z,1.35
2023-07-01T03:29:31.886Z,1.73
2023-07-01T03:31:59.366Z,1.30
2023-07-01T03:34:26.970Z,2.65
2023-07-01T03:36:54.338Z,1.20
2023-07-01T03:39:22.057Z,1.50
2023-07-01T03:41:49.459Z,2.10
2023-07-01T03:44:16.777Z,2.15
2023-07-01T03:46:44.084Z,1.42
2023-07-01T03:49:12.598Z,1.65
2023-07-01T03:51:40.019Z,1.10
2023-07-01T03:54:07.431Z,1.50
2023-07-01T03:56:35.034Z,1.77
2023-07-01T03:59:02.323Z,1.25
2023-07-01T04:01:33.311Z,0.75
2023-07-01T04:04:01.067Z,2.03
2023-07-01T04:06:28.581Z,1.40
2023-07-01T04:08:56.910Z,1.70
2023-07-01T04:11:24.536Z,3.03
2023-07-01T04:13:51.904Z,0.95
2023-07-01T04:16:19.495Z,1.40
2023-07-01T04:18:47.356Z,0.90
2023-07-01T04:21:14.673Z,1.25
2023-07-01T04:23:42.134Z,0.85
2023-07-01T04:26:09.488Z,1.00
2023-07-01T04:28:36.845Z,1.27
2023-07-01T04:31:04.153Z,2.90
2023-07-01T04:33:31.566Z,1.35
2023-07-01T04:35:58.992Z,1.52
2023-07-01T04:38:26.407Z,1.23
2023-07-01T04:40:55.532Z,1.10
2023-07-01T04:43:23.222Z,1.30
2023-07-01T04:45:50.504Z,0.95
2023-07-01T04:48:17.910Z,1.45
2023-07-01T04:50:45.593Z,1.42
2023-07-01T04:53:13.092Z,0.80
2023-07-01T04:55:40.586Z,0.70
2023-07-01T04:58:07.993Z,0.90
2023-07-01T05:00:35.302Z,0.82
2023-07-01T05:03:02.997Z,2.35
2023-07-01T05:05:30.747Z,1.33
2023-07-01T05:07:58.488Z,1.23
2023-07-01T05:10:25.917Z,0.85
2023-07-01T05:12:53.407Z,0.70
2023-07-01T05:15:20.750Z,1.27
2023-07-01T05:17:48.107Z,0.80
2023-07-01T05:20:15.470Z,1.15
2023-07-01T05:22:42.876Z,1.65
2023-07-01T05:25:10.337Z,1.10
2023-07-01T05:27:37.689Z,0.73
2023-07-01T05:30:05.833Z,1.10
2023-07-01T05:32:33.197Z,0.70
2023-07-01T05:35:00.966Z,0.82
2023-07-01T05:37:28.275Z,0.70
2023-07-01T05:39:55.795Z,0.82
2023-07-01T05:42:23.111Z,0.93
2023-07-01T05:44:50.393Z,0.98
2023-07-01T05:47:17.689Z,1.77
2023-07-01T05:49:44.987Z,1.60
2023-07-01T05:52:12.519Z,1.27
2023-07-01T05:54:39.891Z,1.30
2023-07-01T05:57:07.607Z,0.90
2023-07-01T05:59:35.206Z,2.28
2023-07-01T06:02:03.640Z,2.67
2023-07-01T06:04:30.987Z,2.38
2023-07-01T06:06:58.360Z,3.42
2023-07-01T06:09:25.679Z,4.93
2023-07-01T06:11:54.112Z,2.92
2023-07-01T06:14:21.545Z,3.33
2023-07-01T06:16:48.902Z,4.88
2023-07-01T06:19:16.593Z,4.28
2023-07-01T06:21:43.920Z,3.28
2023-07-01T06:24:11.297Z,4.55
2023-07-01T06:26:38.756Z,7.15
2023-07-01T06:29:06.117Z,6.82
2023-07-01T06:31:33.524Z,6.80
2023-07-01T06:34:00.919Z,7.57
2023-07-01T06:36:28.376Z,8.45
2023-07-01T06:38:55.732Z,7.35
2023-07-01T06:41:23.033Z,6.60
2023-07-01T06:43:50.405Z,8.73
2023-07-01T06:46:17.787Z,7.30
2023-07-01T06:48:45.186Z,6.85
2023-07-01T06:51:13.301Z,6.43
2023-07-01T06:53:41.178Z,6.15
2023-07-01T06:56:09.152Z,9.52
2023-07-01T06:58:36.885Z,9.05
2023-07-01T07:01:04.656Z,9.82
2023-07-01T07:03:32.066Z,8.35
2023-07-01T07:05:59.516Z,9.55
2023-07-01T07:08:27.223Z,8.55
2023-07-01T07:10:54.590Z,8.30
2023-07-01T07:13:22.064Z,10.15
2023-07-01T07:15:49.480Z,9.40
2023-07-01T07:18:16.955Z,10.65
2023-07-01T07:20:45.410Z,11.25
2023-07-01T07:23:13.077Z,10.88
2023-07-01T07:25:40.513Z,12.65
2023-07-01T07:28:07.858Z,13.00
2023-07-01T07:30:35.321Z,12.48
2023-07-01T07:33:02.726Z,14.98
2023-07-01T07:35:30.099Z,14.27
2023-07-01T07:37:57.464Z,15.10
2023-07-01T07:40:24.764Z,17.67
2023-07-01T07:42:55.969Z,17.40
2023-07-01T07:45:23.564Z,17.67
2023-07-01T07:47:51.100Z,19.40
2023-07-01T07:50:23.508Z,18.88
2023-07-01T07:52:50.992Z,21.02
2023-07-01T07:55:18.539Z,20.30
2023-07-01T07:57:46.101Z,23.02
2023-07-01T08:00:14.114Z,21.80
2023-07-01T08:02:45.611Z,24.73
2023-07-01T08:05:19.821Z,26.50
2023-07-01T08:07:48.667Z,22.70
2023-07-01T08:10:17.487Z,24.85
2023-07-01T08:12:44.908Z,25.70
2023-07-01T08:15:12.597Z,24.63
2023-07-01T08:17:40.882Z,26.10
2023-07-01T08:20:08.808Z,25.55
2023-07-01T08:22:36.259Z,27.80
2023-07-01T08:25:04.003Z,26.65
2023-07-01T08:27:31.395Z,27.70
2023-07-01T08:29:58.770Z,27.27
2023-07-01T08:32:26.102Z,27.70
2023-07-01T08:34:53.426Z,29.05
2023-07-01T08:37:20.831Z,27.85
2023-07-01T08:39:48.242Z,28.20
2023-07-01T08:42:23.350Z,27.98
2023-07-01T08:44:53.520Z,27.38
2023-07-01T08:47:22.222Z,28.23
2023-07-01T08:49:52.376Z,27.05
2023-07-01T08:52:22.723Z,26.85
2023-07-01T08:54:50.719Z,26.27
2023-07-01T08:57:20.558Z,29.13
2023-07-01T08:59:49.180Z,26.20
2023-07-01T09:02:16.809Z,26.00
2023-07-01T09:04:44.607Z,27.65
2023-07-01T09:07:11.983Z,25.23
2023-07-01T09:09:40.087Z,23.65
2023-07-01T09:12:07.958Z,26.63
2023-07-01T09:15:00.513Z,24.25
2023-07-01T09:17:36.526Z,25.23
2023-07-01T09:20:09.649Z,22.65
2023-07-01T09:22:39.814Z,22.25
2023-07-01T09:25:07.836Z,23.42
2023-07-01T09:27:48.666Z,21.10
2023-07-01T09:30:22.231Z,22.13
2023-07-01T09:32:50.087Z,21.17
2023-07-01T09:35:17.854Z,21.00
2023-07-01T09:37:45.256Z,20.92
2023-07-01T09:40:25.905Z,19.75
2023-07-01T09:42:56.941Z,20.90
2023-07-01T09:45:24.326Z,19.45
2023-07-01T09:47:55.866Z,20.73
2023-07-01T09:50:25.099Z,18.83
2023-07-01T09:52:54.918Z,17.85
2023-07-01T09:55:23.064Z,18.48
2023-07-01T09:57:51.055Z,15.18
2023-07-01T10:00:18.394Z,15.90
2023-07-01T10:02:47.362Z,15.73
2023-07-01T10:05:15.461Z,13.82
2023-07-01T10:07:45.062Z,14.32
2023-07-01T10:10:21.479Z,15.82
2023-07-01T10:12:51.767Z,13.13
2023-07-01T10:15:27.316Z,13.52
2023-07-01T10:17:56.012Z,13.00
2023-07-01T10:20:31.970Z,13.65
2023-07-01T10:23:01.200Z,13.00
2023-07-01T10:25:35.282Z,12.90
2023-07-01T10:28:03.256Z,11.35
2023-07-01T10:30:48.862Z,11.40
2023-07-01T10:33:31.917Z,11.07
2023-07-01T10:36:09.528Z,11.27
2023-07-01T10:38:38.535Z,11.60
2023-07-01T10:41:06.937Z,11.55
2023-07-01T10:43:36.089Z,9.52
2023-07-01T10:46:13.977Z,10.63
2023-07-01T10:49:05.956Z,11.30
2023-07-01T10:51:53.441Z,10.68
2023-07-01T10:54:36.529Z,9.80
2023-07-01T10:57:15.230Z,9.50
2023-07-01T10:59:42.940Z,9.38
2023-07-01T11:02:12.062Z,10.23
2023-07-01T11:04:57.157Z,9.18
2023-07-01T11:07:29.049Z,10.13
2023-07-01T11:09:57.066Z,9.20
2023-07-01T11:12:25.365Z,9.10
2023-07-01T11:14:56.252Z,9.75
2023-07-01T11:17:24.755Z,9.05
2023-07-01T11:19:59.455Z,9.00
2023-07-01T11:22:27.231Z,8.68
2023-07-01T11:25:04.858Z,8.68
2023-07-01T11:27:32.276Z,8.95
2023-07-01T11:29:59.645Z,8.63
2023-07-01T11:32:27.058Z,9.38
2023-07-01T11:34:59.507Z,9.20
2023-07-01T11:37:28.784Z,9.30
2023-07-01T11:39:56.914Z,9.60
2023-07-01T11:42:27.304Z,8.23
2023-07-01T11:44:54.763Z,7.97
2023-07-01T11:47:22.141Z,7.50
2023-07-01T11:49:49.625Z,8.80
2023-07-01T11:52:26.325Z,7.47
2023-07-01T11:54:56.073Z,7.30
2023-07-01T11:57:24.461Z,7.18
2023-07-01T11:59:59.502Z,6.53
2023-07-01T12:02:34.426Z,6.75
2023-07-01T12:05:02.851Z,8.18
2023-07-01T12:07:30.413Z,6.78
2023-07-01T12:10:18.817Z,6.18
2023-07-01T12:12:46.257Z,7.05
2023-07-01T12:15:13.757Z,6.35
2023-07-01T12:17:41.179Z,6.85
2023-07-01T12:20:10.045Z,7.07
2023-07-01T12:22:39.183Z,7.32
2023-07-01T12:25:06.927Z,7.32
2023-07-01T12:27:34.705Z,6.45
2023-07-01T12:30:03.407Z,6.03
2023-07-01T12:32:30.806Z,7.57
2023-07-01T12:34:58.724Z,6.15
2023-07-01T12:37:26.884Z,5.95
2023-07-01T12:39:55.268Z,6.50
2023-07-01T12:42:24.132Z,5.63
2023-07-01T12:44:51.564Z,6.10
2023-07-01T12:47:20.801Z,7.00
2023-07-01T12:49:48.495Z,7.15
2023-07-01T12:52:15.890Z,6.57
2023-07-01T12:54:43.236Z,5.88
2023-07-01T12:57:10.584Z,5.75
2023-07-01T12:59:38.242Z,5.18
2023-07-01T13:02:06.570Z,5.80
2023-07-01T13:04:34.374Z,4.65
2023-07-01T13:07:01.832Z,5.20
2023-07-01T13:09:44.936Z,5.88
2023-07-01T13:12:14.400Z,5.50
2023-07-01T13:14:41.807Z,5.30
2023-07-01T13:17:09.939Z,5.70
2023-07-01T13:19:37.536Z,4.95
2023-07-01T13:22:05.083Z,4.30
2023-07-01T13:24:45.604Z,4.88
2023-07-01T13:27:16.902Z,4.97
2023-07-01T13:29:44.346Z,4.95
2023-07-01T13:32:12.378Z,4.97
2023-07-01T13:34:45.436Z,4.43
2023-07-01T13:37:18.649Z,4.28
2023-07-01T13:39:50.470Z,4.68
2023-07-01T13:42:26.464Z,4.30
2023-07-01T13:44:57.334Z,4.10
2023-07-01T13:47:47.891Z,4.18
2023-07-01T13:50:26.294Z,4.15
2023-07-01T13:53:02.025Z,3.75
2023-07-01T13:55:31.824Z,4.03
2023-07-01T13:57:59.254Z,3.70
2023-07-01T14:00:29.652Z,3.88
2023-07-01T14:02:57.253Z,4.00
2023-07-01T14:05:25.488Z,3.50
2023-07-01T14:07:59.595Z,3.60
2023-07-01T14:10:33.603Z,3.83
2023-07-01T14:13:01.231Z,3.53
2023-07-01T14:15:40.524Z,3.40
2023-07-01T14:18:19.523Z,3.53
2023-07-01T14:20:56.958Z,3.80
2023-07-01T14:23:38.977Z,3.72
2023-07-01T14:26:14.748Z,3.30
2023-07-01T14:28:46.023Z,3.85
2023-07-01T14:31:14.903Z,4.30
2023-07-01T14:33:58.404Z,3.28
2023-07-01T14:36:41.642Z,3.30
2023-07-01T14:39:09.558Z,2.55
2023-07-01T14:41:43.139Z,3.08
2023-07-01T14:44:21.315Z,3.35
2023-07-01T14:46:48.752Z,3.17
2023-07-01T14:49:16.283Z,3.03
2023-07-01T14:51:44.489Z,2.97
2023-07-01T14:54:11.820Z,2.88
2023-07-01T14:56:39.162Z,2.72
2023-07-01T14:59:06.640Z,2.97
2023-07-01T15:01:34.179Z,3.13
2023-07-01T15:04:01.707Z,3.13
2023-07-01T15:06:29.172Z,3.33
2023-07-01T15:08:56.662Z,3.40
2023-07-01T15:11:24.046Z,5.78
2023-07-01T15:13:51.399Z,4.60
2023-07-01T15:16:20.581Z,6.03
2023-07-01T15:18:48.021Z,4.88
2023-07-01T15:21:15.372Z,6.32
2023-07-01T15:23:42.723Z,6.82
2023-07-01T15:26:10.095Z,6.60
2023-07-01T15:28:37.530Z,6.38
2023-07-01T15:31:07.508Z,6.22
2023-07-01T15:33:35.263Z,6.95
2023-07-01T15:36:03.149Z,7.72
2023-07-01T15:38:30.642Z,10.27
2023-07-01T15:40:58.037Z,8.68
2023-07-01T15:43:25.358Z,8.93
2023-07-01T15:45:52.871Z,8.30
2023-07-01T15:48:21.852Z,6.88
2023-07-01T15:50:49.236Z,8.25
2023-07-01T15:53:16.719Z,7.07
2023-07-01T15:55:44.150Z,8.50
2023-07-01T15:58:11.541Z,7.30
2023-07-01T16:00:38.997Z,7.78
2023-07-01T16:03:08.104Z,7.32
2023-07-01T16:05:35.485Z,8.02
2023-07-01T16:08:10.795Z,8.10
2023-07-01T16:10:38.169Z,7.10
2023-07-01T16:13:07.322Z,7.38
2023-07-01T16:15:55.876Z,6.80
2023-07-01T16:18:41.315Z,7.63
2023-07-01T16:21:09.653Z,6.40
2023-07-01T16:23:43.448Z,6.13
2023-07-01T16:26:14.138Z,6.68
2023-07-01T16:28:46.504Z,5.90
2023-07-01T16:31:22.615Z,7.28
2023-07-01T16:33:50.147Z,7.28
2023-07-01T16:36:21.670Z,5.80
2023-07-01T16:38:51.323Z,5.97
2023-07-01T16:41:19.670Z,5.68
2023-07-01T16:43:52.458Z,5.43
2023-07-01T16:46:34.341Z,6.15
2023-07-01T16:49:03.418Z,4.80
2023-07-01T16:51:30.750Z,4.97
2023-07-01T16:54:31.097Z,5.13
2023-07-01T16:57:00.311Z,5.10
2023-07-01T16:59:33.199Z,4.75
2023-07-01T17:02:00.672Z,5.00
2023-07-01T17:04:31.786Z,4.97
2023-07-01T17:06:59.479Z,4.80
2023-07-01T17:09:35.933Z,5.78
2023-07-01T17:12:03.495Z,4.10
2023-07-01T17:14:46.093Z,3.75
2023-07-01T17:17:33.077Z,4.53
2023-07-01T17:20:04.974Z,4.78
2023-07-01T17:22:33.591Z,3.25
2023-07-01T17:25:01.509Z,3.03
2023-07-01T17:27:29.167Z,3.33
2023-07-01T17:29:56.937Z,3.45
2023-07-01T17:32:24.434Z,3.38
2023-07-01T17:35:16.836Z,3.78
2023-07-01T17:37:48.931Z,3.60
2023-07-01T17:40:20.265Z,3.30
2023-07-01T17:42:47.699Z,3.60
2023-07-01T17:45:15.219Z,3.38
2023-07-01T17:47:42.967Z,3.80
2023-07-01T17:50:20.591Z,2.67
2023-07-01T17:52:50.177Z,3.45
2023-07-01T17:55:17.976Z,3.63
2023-07-01T18:00:16.302Z,3.10
2023-07-01T18:02:43.703Z,1.98
2023-07-01T18:05:11.341Z,2.90
2023-07-01T18:07:40.321Z,3.03
2023-07-01T18:10:08.287Z,3.10
2023-07-01T18:12:37.366Z,2.45
2023-07-01T18:15:13.962Z,2.15
2023-07-01T18:17:44.186Z,2.03
2023-07-01T18:20:12.346Z,2.30
2023-07-01T18:22:39.940Z,2.70
2023-07-01T18:25:07.595Z,2.90
2023-07-01T18:27:34.877Z,2.60
2023-07-01T18:30:02.268Z,2.50
2023-07-01T18:32:29.591Z,2.78
2023-07-01T18:34:57.206Z,1.90
2023-07-01T18:37:24.755Z,2.53
2023-07-01T18:39:52.325Z,2.60
2023-07-01T18:42:19.757Z,2.72
2023-07-01T18:44:48.106Z,3.60
2023-07-01T18:47:15.505Z,2.40
2023-07-01T18:49:42.851Z,2.70
2023-07-01T18:52:10.213Z,1.80
2023-07-01T18:54:37.560Z,3.20
2023-07-01T18:57:05.280Z,2.78
2023-07-01T18:59:33.158Z,2.17
2023-07-01T19:02:00.683Z,2.10
2023-07-01T19:04:29.838Z,2.33
2023-07-01T19:06:57.743Z,2.72
2023-07-01T19:09:25.118Z,2.20
2023-07-01T19:11:52.417Z,1.48
2023-07-01T19:14:19.833Z,2.10
2023-07-01T19:16:47.817Z,1.50
2023-07-01T19:19:19.698Z,2.45
2023-07-01T19:21:47.604Z,2.55
2023-07-01T19:24:19.644Z,1.50
2023-07-01T19:26:47.055Z,2.35
2023-07-01T19:29:15.112Z,3.67
2023-07-01T19:31:42.538Z,1.77
2023-07-01T19:34:09.873Z,1.98
2023-07-01T19:36:37.316Z,2.03
2023-07-01T19:39:04.696Z,2.83
2023-07-01T19:41:32.073Z,2.08
2023-07-01T19:43:59.562Z,1.55
2023-07-01T19:46:26.931Z,1.60
2023-07-01T19:48:55.661Z,1.92
2023-07-01T19:51:23.174Z,2.80
2023-07-01T19:53:50.640Z,1.65
2023-07-01T19:56:18.015Z,2.03
2023-07-01T19:58:45.392Z,2.63
2023-07-01T20:01:12.798Z,1.98
2023-07-01T20:03:40.120Z,3.00
2023-07-01T20:06:07.752Z,2.10
2023-07-01T20:08:36.559Z,1.67
2023-07-01T20:11:04.917Z,1.95
2023-07-01T20:13:32.283Z,1.75
2023-07-01T20:15:59.681Z,1.45
2023-07-01T20:18:27.065Z,1.98
2023-07-01T20:20:54.540Z,1.95
2023-07-01T20:23:21.907Z,1.30
2023-07-01T20:25:49.523Z,1.92
2023-07-01T20:28:17.194Z,2.75
2023-07-01T20:30:44.759Z,2.88
2023-07-01T20:33:12.183Z,2.72
2023-07-01T20:35:39.598Z,1.92
2023-07-01T20:38:06.912Z,2.90
2023-07-01T20:40:34.229Z,1.27
2023-07-01T20:43:01.607Z,1.98
2023-07-01T20:45:28.978Z,2.03
2023-07-01T20:47:56.375Z,1.55
2023-07-01T20:50:23.800Z,2.40
2023-07-01T20:52:52.086Z,1.83
2023-07-01T20:55:19.940Z,1.33
2023-07-01T20:57:47.363Z,2.28
2023-07-01T21:00:15.368Z,2.10
2023-07-01T21:02:42.749Z,3.08
2023-07-01T21:05:10.249Z,2.17
2023-07-01T21:07:37.681Z,2.10
2023-07-01T21:10:05.319Z,1.95
2023-07-01T21:12:32.698Z,2.28
2023-07-01T21:15:00.009Z,3.28
2023-07-01T21:17:27.802Z,3.22
2023-07-01T21:19:55.280Z,4.10
2023-07-01T21:22:23.601Z,6.07
2023-07-01T21:24:50.905Z,4.07
2023-07-01T21:27:39.836Z,4.88
2023-07-01T21:30:12.178Z,2.95
2023-07-01T21:32:45.622Z,4.45
2023-07-01T21:35:13.879Z,3.88
2023-07-01T21:37:42.433Z,5.05
2023-07-01T21:40:15.263Z,8.23
2023-07-01T21:42:42.573Z,5.78
2023-07-01T21:45:26.029Z,4.63
2023-07-01T21:47:53.451Z,6.85
2023-07-01T21:50:48.460Z,4.35
2023-07-01T21:55:43.824Z,5.47
2023-07-01T21:58:29.479Z,5.22
2023-07-01T22:01:01.142Z,8.57
2023-07-01T22:03:32.437Z,6.65
2023-07-01T22:06:00.471Z,4.45
2023-07-01T22:08:27.827Z,5.85
2023-07-01T22:10:58.400Z,4.00
2023-07-01T22:13:26.302Z,5.10
2023-07-01T22:15:53.677Z,6.20
2023-07-01T22:18:21.140Z,6.45
2023-07-01T22:20:48.908Z,5.28
2023-07-01T22:23:16.700Z,6.30
2023-07-01T22:25:44.346Z,7.97
2023-07-01T22:28:12.309Z,8.85
2023-07-01T22:30:39.877Z,6.72
2023-07-01T22:33:07.477Z,7.32
2023-07-01T22:35:35.111Z,7.70
2023-07-01T22:38:02.901Z,7.57
2023-07-01T22:40:33.126Z,6.45
2023-07-01T22:43:01.098Z,5.85
2023-07-01T22:45:29.263Z,6.50
2023-07-01T22:47:56.773Z,7.22
2023-07-01T22:50:25.039Z,6.18
2023-07-01T22:52:53.850Z,8.05
2023-07-01T22:55:22.113Z,6.47
2023-07-01T22:57:49.802Z,6.65
2023-07-01T23:00:17.915Z,7.40
2023-07-01T23:02:46.548Z,6.55
2023-07-01T23:05:14.489Z,7.18
2023-07-01T23:07:42.032Z,7.55
2023-07-01T23:10:09.843Z,8.20
2023-07-01T23:12:37.430Z,7.85
2023-07-01T23:15:05.478Z,8.95
2023-07-01T23:17:33.095Z,7.22
2023-07-01T23:20:05.929Z,8.68
2023-07-01T23:22:39.391Z,6.57
2023-07-01T23:25:08.423Z,7.53
2023-07-01T23:27:43.392Z,8.60
2023-07-01T23:30:17.056Z,7.75
2023-07-01T23:32:56.338Z,6.57
2023-07-01T23:35:24.687Z,7.65
2023-07-01T23:37:52.508Z,7.57
2023-07-01T23:40:20.119Z,7.55
2023-07-01T23:42:47.662Z,6.00
2023-07-01T23:45:15.953Z,5.97
2023-07-01T23:47:44.959Z,7.10
2023-07-01T23:50:13.109Z,7.40
2023-07-01T23:52:40.486Z,5.97
2023-07-01T23:55:08.734Z,7.68
2023-07-01T23:57:39.643Z,6.93
